Aeroporto :
LOGIN :

Iscrizione | Disclaimer

   EN    FR    IT 

 










Sommario :    VFR   VFR Marginale   IFR   IFR Intensivo   IFR Molto Intensivo
Visibilità : 
Base nubi : 
>= 8 km
>= 3000ft
5 / 8 km
1000 / 3000 ft
1500m / 5 km
500 / 1000 ft
800 / 1500m
200 / 500 ft
< 800m
< 200 ft
Simboli :   Temporali  Nebbia  Neve Forte  Precipitazioni Forti  Vento > 20 kt
SIGMETs :   Varie  Temporali  Ghiacco  Turbolenza  Onda orograficha  Ceneri Vulcaniche






- Altitudine del aeroporto : 15 ft
- Codice IATA : BHD


EGAC - George Best Belfast City

ULTIMO METAR :
  • 191450Z 14013KT 9999 RA FEW008 SCT012 BKN017 09/09 Q1006

METARs OBSOLETI :
  • 191420Z 15014KT 5000 RA FEW010 SCT017 BKN024 09/09 Q1006
  • 191350Z 15012KT 5000 RA SCT010 BKN016 BKN025 09/09 Q1007
  • 191320Z AUTO 13011KT 7000 -RA SCT010/// SCT021/// BKN043/// 09/09 Q1007
  • 191250Z 15011KT 7000 -RA FEW005 SCT011 BKN015 09/08 Q1008
  • 191220Z 13013KT 5000 -RA FEW021 SCT025 BKN033 09/08 Q1008

TAF TAF EGAC
Valido dal 19 a 15 ore il 19 a 22 ore UTC


191357Z 1915/1922 14012KT 9999 FEW018 SCT025
TEMPO 1915/1918 4000 RA SCT008 BKN012
ATIS : +44 02890 935 124



MetMap, La meteo Aeronautica in un colpo d'occhio ! - Copyright ORBIFLY Dicembre 2007 - Disclaimer

ORBIFLY MET'MAP TEAM :

Programmazione e sviluppo : Alexandra Zaïnal
Concezione e sviluppo : Baudouin d'Aumeries
Co-Programmazione e sviluppo : Marc-Olivier Méhu
Supporto tecnico e logistico : Manuel Goepfert
Aiuto per la traduzione : Arnaldo La Scala

Contatto : metmap@orbifly.com




FONTI E CREDITI :

   NOAA